Time;durP1;ratioP1;P1;durP2;ratioP2;P2;SDS_P1;SDS_P2;PMS_P1;PMS_P2;Temp;Humidity;BMP_temperature;BMP_pressure;BME280_temperature;BME280_humidity;BME280_pressure;Samples;Min_cycle;Max_cycle;Signal;HPM_P1;HPM_P2
2021/04/24 00:01:06;;;;;;;3.00;2.90;;;;;;;5.83;64.60;102363.97;4410558;32;20072;-64
2021/04/24 00:03:31;;;;;;;3.53;3.42;;;;;;;5.84;64.25;102368.31;4405158;32;20075;-64
2021/04/24 00:05:57;;;;;;;3.58;3.33;;;;;;;5.82;64.26;102362.25;4412128;32;20060;-64
2021/04/24 00:08:22;;;;;;;3.10;3.00;;;;;;;5.74;64.25;102359.69;4413374;32;20081;-64
2021/04/24 00:10:47;;;;;;;3.30;3.20;;;;;;;5.67;64.03;102359.72;4411537;32;20099;-64
2021/04/24 00:13:13;;;;;;;4.35;4.10;;;;;;;4.77;64.30;102210.88;4414754;32;20096;-64
2021/04/24 00:15:39;;;;;;;3.20;3.10;;;;;;;5.53;64.69;102355.47;4412300;32;20562;-64
2021/04/24 00:18:05;;;;;;;3.10;3.00;;;;;;;5.47;64.94;102357.19;4414287;32;20077;-62
2021/04/24 00:20:30;;;;;;;3.85;3.65;;;;;;;5.35;64.93;102342.50;4411542;32;20122;-64
2021/04/24 00:22:56;;;;;;;3.20;3.10;;;;;;;5.29;65.29;102356.44;4415231;32;20088;-64
2021/04/24 00:25:21;;;;;;;3.08;2.97;;;;;;;5.23;65.00;102353.81;4416475;32;20207;-62
2021/04/24 00:27:47;;;;;;;3.30;3.20;;;;;;;4.99;65.81;102333.94;4399671;32;20064;-64
2021/04/24 00:30:13;;;;;;;2.95;2.85;;;;;;;5.08;66.22;102359.09;4414763;32;20762;-64
2021/04/24 00:32:38;;;;;;;2.97;2.87;;;;;;;5.07;66.01;102357.34;4410891;32;20111;-63
2021/04/24 00:35:04;;;;;;;3.28;3.17;;;;;;;5.10;65.05;102355.59;4409253;32;20068;-63
2021/04/24 00:37:30;;;;;;;3.05;2.95;;;;;;;4.66;65.38;102301.09;4409378;32;20097;-64
2021/04/24 00:39:55;;;;;;;3.03;2.92;;;;;;;5.00;65.25;102356.50;4438261;32;20061;-63
2021/04/24 00:42:20;;;;;;;3.53;3.42;;;;;;;5.01;65.14;102350.41;4411844;32;20084;-64
2021/04/24 00:44:47;;;;;;;3.12;3.03;;;;;;;5.01;64.95;102355.59;4414290;32;20519;-64
2021/04/24 00:47:12;;;;;;;2.83;2.72;;;;;;;4.93;64.79;102355.66;4411353;32;21086;-63
2021/04/24 00:49:38;;;;;;;2.80;2.70;;;;;;;4.84;64.91;102341.78;4418108;32;20365;-64
2021/04/24 00:52:03;;;;;;;3.70;3.60;;;;;;;4.91;64.54;102349.59;4411496;32;20095;-64
2021/04/24 00:54:29;;;;;;;3.40;3.20;;;;;;;4.89;64.46;102340.91;4412954;32;20067;-64
2021/04/24 00:56:54;;;;;;;4.03;3.83;;;;;;;4.88;64.85;102353.94;4410983;32;20100;-64
2021/04/24 00:59:19;;;;;;;3.90;3.70;;;;;;;4.85;64.41;102348.72;4414208;32;20685;-63
2021/04/24 01:01:45;;;;;;;2.97;2.87;;;;;;;4.78;64.24;102340.91;4416165;32;20114;-64
2021/04/24 01:04:10;;;;;;;3.10;3.00;;;;;;;4.84;63.90;102349.59;4412635;32;20069;-64
2021/04/24 01:06:35;;;;;;;3.30;3.20;;;;;;;4.81;63.81;102347.84;4426189;32;20069;-64
2021/04/24 01:09:01;;;;;;;2.87;2.78;;;;;;;4.84;63.44;102352.19;4411374;32;20137;-65
2021/04/24 01:11:26;;;;;;;2.95;2.85;;;;;;;4.82;63.58;102348.72;4407709;32;20142;-64
2021/04/24 01:13:51;;;;;;;4.03;3.83;;;;;;;4.71;63.87;102349.63;4434796;32;20876;-63
2021/04/24 01:16:17;;;;;;;2.90;2.80;;;;;;;4.66;63.74;102351.34;4414435;32;20077;-64
2021/04/24 01:18:42;;;;;;;2.92;2.83;;;;;;;4.68;63.42;102352.22;4414656;32;20158;-63
2021/04/24 01:21:07;;;;;;;3.17;3.08;;;;;;;4.62;63.52;102353.97;4413950;32;20657;-64
2021/04/24 01:23:33;;;;;;;2.90;2.80;;;;;;;4.52;63.30;102351.34;4412465;32;20068;-64
2021/04/24 01:26:00;;;;;;;3.15;3.05;;;;;;;4.38;64.26;102350.50;4412938;32;20218;-64
2021/04/24 01:28:26;;;;;;;3.05;2.95;;;;;;;4.30;65.49;102345.28;4399108;32;20064;-64
2021/04/24 01:30:52;;;;;;;3.00;2.90;;;;;;;4.20;65.50;102339.22;4411998;32;20092;-63
2021/04/24 01:33:17;;;;;;;3.40;3.30;;;;;;;4.24;65.31;102344.44;4410717;32;20075;-64
2021/04/24 01:35:43;;;;;;;3.60;3.50;;;;;;;4.27;65.80;102347.00;4412740;32;20064;-64
2021/04/24 01:38:08;;;;;;;2.87;2.78;;;;;;;4.22;65.26;102347.00;4414255;32;20096;-64
2021/04/24 01:40:34;;;;;;;3.20;3.10;;;;;;;4.22;65.20;102340.97;4411636;32;20597;-63
2021/04/24 01:43:01;;;;;;;3.00;2.90;;;;;;;4.27;64.90;102353.09;4410547;32;20174;-63
2021/04/24 01:45:26;;;;;;;2.97;2.87;;;;;;;4.24;65.00;102354.81;4408865;32;20662;-63
2021/04/24 01:47:52;;;;;;;3.10;3.00;;;;;;;4.14;65.02;102356.53;4438430;32;20099;-63
2021/04/24 01:50:22;;;;;;;2.80;2.70;;;;;;;4.16;65.27;102352.22;4410154;32;20175;-64
2021/04/24 01:52:49;;;;;;;3.00;2.90;;;;;;;4.05;65.04;102346.13;4414291;32;20060;-64
2021/04/24 01:55:16;;;;;;;3.12;3.03;;;;;;;4.08;65.36;102344.41;4410806;32;20087;-63
2021/04/24 01:57:42;;;;;;;2.90;2.80;;;;;;;4.12;65.55;102355.66;4418962;32;20579;-63
2021/04/24 02:00:09;;;;;;;3.00;2.90;;;;;;;4.17;65.34;102352.22;4406745;32;20073;-64
2021/04/24 02:02:34;;;;;;;2.95;2.85;;;;;;;4.17;64.99;102353.97;4411089;32;20073;-64
2021/04/24 02:05:01;;;;;;;3.55;3.45;;;;;;;2.82;65.26;102135.63;4409779;32;20049;-64
2021/04/24 02:07:27;;;;;;;3.50;3.37;;;;;;;4.00;66.01;102344.38;4414062;32;20069;-65
2021/04/24 02:09:52;;;;;;;2.95;2.85;;;;;;;3.99;66.21;102349.59;4410463;32;20100;-65
2021/04/24 02:12:17;;;;;;;3.50;3.30;;;;;;;3.86;66.70;102351.28;4407196;32;20069;-63
2021/04/24 02:14:49;;;;;;;3.03;2.92;;;;;;;3.84;67.14;102350.41;4427374;32;20095;-64
2021/04/24 02:17:17;;;;;;;3.43;3.30;;;;;;;3.86;67.19;102351.28;4409775;32;20089;-64
2021/04/24 02:19:43;;;;;;;2.60;2.50;;;;;;;3.75;67.20;102340.03;4411085;32;20066;-63
2021/04/24 02:22:09;;;;;;;2.75;2.65;;;;;;;3.66;66.80;102335.66;4410658;32;20126;-63
2021/04/24 02:24:39;;;;;;;2.83;2.72;;;;;;;3.64;67.20;102347.75;4413277;32;20621;-63
2021/04/24 02:27:06;;;;;;;2.80;2.70;;;;;;;2.68;67.30;102197.78;4410548;32;20075;-64
2021/04/24 02:29:32;;;;;;;2.80;2.70;;;;;;;3.51;67.23;102341.69;4407669;32;20755;-63
2021/04/24 02:31:57;;;;;;;2.72;2.62;;;;;;;3.51;67.69;102351.19;4414256;32;20077;-64
2021/04/24 02:34:22;;;;;;;3.20;3.10;;;;;;;3.49;67.46;102348.59;4411549;32;20075;-64
2021/04/24 02:36:48;;;;;;;3.10;3.00;;;;;;;3.48;68.02;102352.03;4412494;32;20088;-64
2021/04/24 02:39:13;;;;;;;2.90;2.80;;;;;;;3.52;68.00;102353.78;4409626;32;20076;-64
2021/04/24 02:41:38;;;;;;;3.72;3.53;;;;;;;3.51;67.63;102353.81;4419909;32;20877;-64
2021/04/24 02:44:04;;;;;;;2.80;2.70;;;;;;;3.45;68.44;102357.22;4414975;32;20141;-62
2021/04/24 02:46:29;;;;;;;2.95;2.80;;;;;;;3.40;68.47;102362.37;4411453;32;20069;-63
2021/04/24 02:48:55;;;;;;;3.05;2.95;;;;;;;3.40;68.57;102353.72;4413263;32;20080;-64
2021/04/24 02:51:20;;;;;;;3.00;2.90;;;;;;;3.38;68.61;102356.31;4411842;32;20100;-64
2021/04/24 02:53:45;;;;;;;2.80;2.70;;;;;;;3.37;68.36;102358.94;4409957;32;20064;-63
2021/04/24 02:56:11;;;;;;;2.78;2.67;;;;;;;3.32;68.33;102358.87;4415063;32;20076;-63
2021/04/24 02:58:36;;;;;;;2.70;2.60;;;;;;;3.34;68.52;102358.91;4411758;32;20139;-63
2021/04/24 03:01:01;;;;;;;2.70;2.60;;;;;;;3.27;69.00;102362.31;4413875;32;20065;-64
2021/04/24 03:03:27;;;;;;;2.90;2.80;;;;;;;3.23;68.88;102357.97;4411143;32;20473;-64
2021/04/24 03:05:54;;;;;;;2.90;2.80;;;;;;;3.20;69.16;102366.63;4414111;32;20125;-64
2021/04/24 03:08:20;;;;;;;2.70;2.60;;;;;;;3.16;69.28;102363.13;4414948;32;20081;-64
2021/04/24 03:10:45;;;;;;;2.90;2.80;;;;;;;3.10;69.09;102363.09;4413167;32;21474;-63
2021/04/24 03:13:10;;;;;;;3.20;3.00;;;;;;;3.10;69.04;102357.91;4411340;32;20080;-64
2021/04/24 03:15:36;;;;;;;3.33;3.20;;;;;;;3.07;69.62;102357.06;4415870;32;20080;-64
2021/04/24 03:18:01;;;;;;;3.25;3.15;;;;;;;2.96;68.87;102341.41;4412093;32;20626;-62
2021/04/24 03:20:27;;;;;;;2.80;2.70;;;;;;;2.94;69.38;102348.31;4413678;32;20571;-64
2021/04/24 03:22:52;;;;;;;2.90;2.80;;;;;;;2.90;69.13;102352.59;4411766;32;20091;-64
2021/04/24 03:25:18;;;;;;;2.90;2.80;;;;;;;2.83;69.77;102355.13;4411281;32;20141;-63
2021/04/24 03:27:43;;;;;;;2.85;2.75;;;;;;;2.80;69.66;102358.59;4412104;32;20082;-62
2021/04/24 03:30:10;;;;;;;2.72;2.62;;;;;;;2.64;70.13;102347.25;4410563;32;20710;-63
2021/04/24 03:32:35;;;;;;;2.95;2.85;;;;;;;2.64;70.55;102349.84;4414847;32;20895;-62
2021/04/24 03:35:00;;;;;;;2.80;2.70;;;;;;;2.58;71.29;102350.66;4411771;32;20354;-64
2021/04/24 03:37:26;;;;;;;3.00;2.90;;;;;;;2.54;71.53;102345.44;4414862;32;20087;-63
2021/04/24 03:39:52;;;;;;;3.08;2.97;;;;;;;2.55;71.77;102354.97;4413327;32;20084;-64
2021/04/24 03:42:17;;;;;;;2.60;2.50;;;;;;;2.49;71.61;102344.56;4414805;32;20067;-63
2021/04/24 03:44:43;;;;;;;2.72;2.62;;;;;;;2.52;71.84;102360.12;4411163;32;20142;-64
2021/04/24 03:47:08;;;;;;;2.83;2.72;;;;;;;2.49;71.33;102350.59;4413899;32;20587;-62
2021/04/24 03:49:33;;;;;;;3.00;2.90;;;;;;;2.47;71.73;102361.81;4415138;32;20073;-62
2021/04/24 03:51:59;;;;;;;3.08;2.97;;;;;;;2.42;71.44;102361.75;4414181;32;20506;-62
2021/04/24 03:54:24;;;;;;;3.35;3.25;;;;;;;2.37;71.79;102356.53;4411114;32;20081;-64
2021/04/24 03:56:50;;;;;;;3.00;2.90;;;;;;;2.36;72.13;102365.16;4412994;32;20079;-64
2021/04/24 03:59:15;;;;;;;2.70;2.60;;;;;;;2.34;72.56;102361.69;4412662;32;20080;-64
2021/04/24 04:01:40;;;;;;;2.70;2.60;;;;;;;2.28;73.05;102351.28;4408754;32;20109;-62
2021/04/24 04:04:06;;;;;;;2.70;2.60;;;;;;;2.27;73.06;102361.66;4439002;32;20056;-64
2021/04/24 04:06:31;;;;;;;2.67;2.58;;;;;;;2.27;73.04;102354.72;4409114;32;20085;-63
2021/04/24 04:08:56;;;;;;;2.50;2.40;;;;;;;2.27;73.73;102359.91;4438474;32;20072;-64
2021/04/24 04:11:22;;;;;;;3.22;2.92;;;;;;;2.25;73.13;102368.53;4411234;32;20100;-63
2021/04/24 04:13:47;;;;;;;2.60;2.50;;;;;;;1.10;73.80;102187.97;4416398;32;20087;-62
2021/04/24 04:16:12;;;;;;;3.28;3.08;;;;;;;2.16;73.52;102369.28;4409359;32;20754;-63
2021/04/24 04:18:38;;;;;;;2.75;2.65;;;;;;;2.12;73.34;102370.97;4413847;32;20071;-63
2021/04/24 04:21:04;;;;;;;2.83;2.72;;;;;;;2.11;72.79;102369.25;4411173;32;20581;-63
2021/04/24 04:23:29;;;;;;;2.80;2.70;;;;;;;2.10;73.87;102372.69;4412130;32;20183;-62
2021/04/24 04:25:55;;;;;;;3.05;2.95;;;;;;;2.05;73.18;102365.75;4411708;32;20077;-64
2021/04/24 04:28:20;;;;;;;2.90;2.80;;;;;;;2.13;73.68;102382.22;4414449;32;20103;-64
2021/04/24 04:30:46;;;;;;;2.65;2.55;;;;;;;2.15;72.87;102376.19;4412392;32;20072;-64
2021/04/24 04:33:11;;;;;;;3.12;3.03;;;;;;;2.22;72.86;102378.84;4420161;32;20142;-63
2021/04/24 04:35:37;;;;;;;2.55;2.45;;;;;;;1.12;72.99;102183.66;4411541;32;20585;-64
2021/04/24 04:38:03;;;;;;;2.60;2.50;;;;;;;2.32;72.97;102378.94;4423096;32;20877;-64
2021/04/24 04:40:29;;;;;;;2.45;2.35;;;;;;;2.39;71.92;102385.06;4407803;32;20103;-65
2021/04/24 04:42:54;;;;;;;2.65;2.55;;;;;;;2.47;72.23;102377.38;4435112;32;20064;-64
2021/04/24 04:45:19;;;;;;;2.50;2.40;;;;;;;2.23;71.58;102319.28;4413529;32;20073;-64
2021/04/24 04:47:45;;;;;;;2.97;2.87;;;;;;;2.93;71.50;102382.91;4413688;32;20146;-64
2021/04/24 04:50:13;;;;;;;2.70;2.60;;;;;;;3.29;70.67;102390.03;4414225;32;20084;-64
2021/04/24 04:52:38;;;;;;;2.72;2.62;;;;;;;3.54;69.32;102387.53;4408905;32;20113;-64
2021/04/24 04:55:05;;;;;;;2.80;2.70;;;;;;;3.71;68.36;102385.00;4414382;32;20073;-64
2021/04/24 04:57:30;;;;;;;2.95;2.85;;;;;;;3.83;67.20;102387.66;4409246;32;20108;-64
2021/04/24 04:59:55;;;;;;;3.37;3.17;;;;;;;3.95;66.40;102377.28;4412786;32;20552;-63
2021/04/24 05:02:21;;;;;;;2.80;2.70;;;;;;;2.84;66.19;102172.81;4413991;32;20471;-64
2021/04/24 05:04:46;;;;;;;3.08;2.97;;;;;;;4.04;66.64;102381.63;4410350;32;20695;-64
2021/04/24 05:07:12;;;;;;;3.65;3.45;;;;;;;4.10;66.49;102381.63;4411940;32;20077;-64
2021/04/24 05:09:38;;;;;;;3.00;2.90;;;;;;;4.23;65.92;102379.94;4413718;32;20602;-63
2021/04/24 05:12:03;;;;;;;3.30;3.20;;;;;;;4.36;65.84;102379.06;4436586;32;20917;-62
2021/04/24 05:14:29;;;;;;;2.60;2.50;;;;;;;4.49;65.86;102379.06;4410724;32;20146;-64
2021/04/24 05:16:54;;;;;;;3.50;3.40;;;;;;;4.59;65.27;102381.69;4425844;32;20571;-63
2021/04/24 05:19:19;;;;;;;3.12;3.03;;;;;;;4.71;64.45;102385.13;4420095;32;20099;-64
2021/04/24 05:21:45;;;;;;;2.97;2.87;;;;;;;5.01;63.88;102381.63;4411392;32;20662;-65
2021/04/24 05:24:10;;;;;;;3.00;2.90;;;;;;;5.16;63.12;102380.75;4410848;32;20085;-64
2021/04/24 05:26:35;;;;;;;3.00;2.90;;;;;;;5.09;63.10;102386.81;4411798;32;20581;-63
2021/04/24 05:29:01;;;;;;;2.90;2.80;;;;;;;4.98;63.87;102392.06;4414172;32;20080;-63
2021/04/24 05:31:26;;;;;;;3.20;3.10;;;;;;;4.93;64.83;102388.59;4409539;32;20150;-64
2021/04/24 05:33:52;;;;;;;3.00;2.90;;;;;;;5.09;64.92;102389.44;4411927;32;20062;-63
2021/04/24 05:36:19;;;;;;;3.08;2.97;;;;;;;5.23;64.09;102389.41;4414957;32;20199;-63
2021/04/24 05:38:44;;;;;;;3.30;3.20;;;;;;;5.04;64.27;102399.00;4413793;32;20072;-63
2021/04/24 05:41:12;;;;;;;2.92;2.83;;;;;;;5.00;64.99;102385.13;4407529;32;20061;-62
2021/04/24 05:43:37;;;;;;;3.00;2.90;;;;;;;4.97;64.03;102388.59;4413262;32;20061;-63
2021/04/24 05:46:02;;;;;;;3.65;3.53;;;;;;;4.93;64.59;102384.28;4422490;32;20100;-64
2021/04/24 05:48:28;;;;;;;2.90;2.80;;;;;;;5.04;64.85;102399.00;4413489;32;20060;-64
2021/04/24 05:50:54;;;;;;;3.20;3.10;;;;;;;3.44;63.89;102140.06;4410876;32;20082;-63
2021/04/24 05:53:19;;;;;;;2.95;2.85;;;;;;;5.30;62.75;102389.37;4426497;32;20065;-64
2021/04/24 05:55:45;;;;;;;3.42;3.22;;;;;;;5.27;62.37;102394.59;4411358;32;20721;-64
2021/04/24 05:58:10;;;;;;;2.90;2.80;;;;;;;5.28;62.58;102390.25;4409936;32;20135;-63
2021/04/24 06:00:35;;;;;;;3.00;2.90;;;;;;;5.39;62.43;102391.06;4410454;32;20065;-64
2021/04/24 06:03:01;;;;;;;2.80;2.70;;;;;;;5.60;62.57;102385.78;4410298;32;20091;-65
2021/04/24 06:05:26;;;;;;;3.00;2.90;;;;;;;5.80;61.68;102395.25;4412424;32;20572;-64
2021/04/24 06:07:51;;;;;;;3.20;3.10;;;;;;;6.07;60.88;102396.88;4408507;32;20068;-64
2021/04/24 06:10:17;;;;;;;2.90;2.80;;;;;;;6.41;60.19;102398.38;4423747;32;20078;-63
2021/04/24 06:12:43;;;;;;;3.00;2.90;;;;;;;6.35;58.51;102383.66;4414327;32;20587;-64
2021/04/24 06:15:10;;;;;;;3.08;2.97;;;;;;;6.37;59.26;102390.59;4412567;32;20081;-64
2021/04/24 06:17:35;;;;;;;6.30;6.00;;;;;;;6.39;58.97;102391.47;4403800;32;20077;-66
2021/04/24 06:20:00;;;;;;;3.12;3.03;;;;;;;6.32;59.26;102387.16;4408688;32;20107;-68
2021/04/24 06:22:26;;;;;;;3.15;3.05;;;;;;;6.48;59.37;102389.66;4405845;32;20683;-65
2021/04/24 06:24:51;;;;;;;3.20;3.10;;;;;;;6.70;57.97;102388.59;4411311;32;20070;-63
2021/04/24 06:27:17;;;;;;;3.45;3.35;;;;;;;6.77;57.52;102390.25;4419288;32;20091;-65
2021/04/24 06:29:42;;;;;;;3.17;3.08;;;;;;;6.67;57.26;102385.13;4407886;32;20805;-66
2021/04/24 06:32:07;;;;;;;3.78;3.58;;;;;;;6.58;56.73;102384.34;4410273;32;20080;-65
2021/04/24 06:34:33;;;;;;;3.12;3.03;;;;;;;6.67;57.83;102388.59;4408176;32;20270;-65
2021/04/24 06:36:58;;;;;;;3.33;3.22;;;;;;;6.64;56.41;102391.25;4412722;32;20891;-65
2021/04/24 06:39:24;;;;;;;3.10;3.00;;;;;;;6.71;58.29;102392.06;4418109;32;20131;-65
2021/04/24 06:41:49;;;;;;;3.10;3.00;;;;;;;6.69;57.48;102386.00;4417563;32;20080;-67
2021/04/24 06:44:16;;;;;;;3.58;3.47;;;;;;;6.76;59.87;102380.72;4408534;32;20150;-66
2021/04/24 06:46:41;;;;;;;3.40;3.30;;;;;;;6.83;56.96;102376.28;4408905;32;20924;-66
2021/04/24 06:49:06;;;;;;;3.25;3.15;;;;;;;6.81;57.03;102374.56;4410342;32;20076;-66
2021/04/24 06:51:32;;;;;;;3.20;3.10;;;;;;;6.73;58.08;102382.47;4410667;32;20130;-65
2021/04/24 06:53:57;;;;;;;3.10;3.00;;;;;;;6.80;58.66;102376.31;4413683;32;20107;-66
2021/04/24 06:56:22;;;;;;;3.30;3.20;;;;;;;6.94;59.38;102370.97;4407342;32;20068;-66
2021/04/24 06:58:48;;;;;;;3.17;3.08;;;;;;;6.90;58.38;102371.88;4398395;32;20136;-65
2021/04/24 07:01:13;;;;;;;3.50;3.40;;;;;;;7.03;59.23;102370.88;4410275;32;20204;-65
2021/04/24 07:03:39;;;;;;;3.20;3.10;;;;;;;7.25;59.21;102370.62;4411881;32;20073;-67
2021/04/24 07:06:05;;;;;;;3.25;3.15;;;;;;;6.97;57.08;102329.16;4411915;32;20095;-69
2021/04/24 07:08:30;;;;;;;3.10;3.00;;;;;;;7.11;57.91;102376.88;4412968;32;20625;-65
2021/04/24 07:10:56;;;;;;;3.40;3.30;;;;;;;7.22;58.44;102373.28;4424421;32;20065;-65
2021/04/24 07:13:21;;;;;;;4.68;4.47;;;;;;;7.24;58.39;102366.31;4409384;32;21094;-65
2021/04/24 07:15:46;;;;;;;3.20;3.10;;;;;;;7.31;57.07;102375.78;4414001;32;20073;-66
2021/04/24 07:18:12;;;;;;;3.40;3.30;;;;;;;7.31;55.32;102381.88;4396610;32;20990;-66
2021/04/24 07:20:37;;;;;;;3.30;3.20;;;;;;;7.22;56.09;102381.09;4413449;32;20076;-65
2021/04/24 07:23:02;;;;;;;3.50;3.40;;;;;;;7.39;56.37;102389.63;4408176;32;20092;-63
2021/04/24 07:25:28;;;;;;;3.30;3.20;;;;;;;7.61;55.79;102384.12;4411626;32;20071;-63
2021/04/24 07:27:53;;;;;;;4.30;4.00;;;;;;;7.84;55.54;102379.47;4412268;32;20076;-63
2021/04/24 07:30:19;;;;;;;3.78;3.58;;;;;;;7.64;54.40;102360.56;4408181;32;20139;-63
2021/04/24 07:32:45;;;;;;;3.50;3.40;;;;;;;8.33;53.54;102370.03;4411895;32;20091;-72
2021/04/24 07:35:11;;;;;;;3.50;3.40;;;;;;;8.55;52.52;102375.81;4408434;32;20075;-66
2021/04/24 07:37:36;;;;;;;3.50;3.40;;;;;;;8.05;53.29;102362.59;4410429;32;20582;-65
2021/04/24 07:40:03;;;;;;;4.00;3.80;;;;;;;8.24;52.55;102370.16;4421929;32;20068;-66
2021/04/24 07:42:28;;;;;;;3.75;3.58;;;;;;;8.26;50.51;102369.28;4406691;32;20211;-66
2021/04/24 07:44:53;;;;;;;3.60;3.50;;;;;;;7.90;50.13;102373.31;4411397;32;20559;-66
2021/04/24 07:47:19;;;;;;;3.72;3.53;;;;;;;7.95;53.49;102377.56;4407531;32;20093;-66
2021/04/24 07:49:44;;;;;;;3.30;3.20;;;;;;;8.13;52.69;102373.81;4412724;32;20673;-65
2021/04/24 07:52:09;;;;;;;3.40;3.30;;;;;;;8.31;51.77;102361.34;4405771;32;20065;-64
2021/04/24 07:54:36;;;;;;;3.20;3.10;;;;;;;8.45;52.54;102363.78;4412186;32;20078;-66
2021/04/24 07:57:03;;;;;;;3.53;3.42;;;;;;;8.50;48.97;102364.53;4408166;32;20218;-66
2021/04/24 07:59:28;;;;;;;3.45;3.35;;;;;;;8.52;49.73;102354.91;4424946;32;20502;-65
2021/04/24 08:01:54;;;;;;;3.80;3.70;;;;;;;8.38;50.27;102348.16;4407546;32;20642;-62
2021/04/24 08:04:19;;;;;;;3.50;3.40;;;;;;;8.69;48.78;102358.13;4409613;32;20084;-63
2021/04/24 08:06:44;;;;;;;3.50;3.40;;;;;;;8.73;48.96;102362.41;4408339;32;20084;-63
2021/04/24 08:09:10;;;;;;;3.40;3.30;;;;;;;8.91;48.25;102362.97;4408138;32;20327;-64
2021/04/24 08:11:36;;;;;;;3.53;3.42;;;;;;;8.89;49.10;102349.91;4409503;32;20072;-63
2021/04/24 08:14:01;;;;;;;3.60;3.50;;;;;;;8.72;48.70;102363.31;4412342;32;20095;-62
2021/04/24 08:16:26;;;;;;;3.50;3.40;;;;;;;8.69;50.15;102370.34;4407820;32;20512;-64
2021/04/24 08:18:52;;;;;;;3.40;3.30;;;;;;;8.92;49.52;102356.84;4429949;32;20069;-63
2021/04/24 08:21:18;;;;;;;3.58;3.47;;;;;;;8.77;47.18;102361.47;4408963;32;20142;-64
2021/04/24 08:23:43;;;;;;;3.53;3.42;;;;;;;8.78;46.32;102354.50;4420943;32;20937;-64
2021/04/24 08:26:09;;;;;;;3.45;3.35;;;;;;;8.43;49.63;102355.94;4412255;32;20108;-63
2021/04/24 08:28:34;;;;;;;3.80;3.70;;;;;;;8.72;49.43;102367.66;4408193;32;20737;-63
2021/04/24 08:31:00;;;;;;;3.40;3.30;;;;;;;8.57;48.02;102369.66;4411837;32;20092;-62
2021/04/24 08:33:25;;;;;;;3.40;3.30;;;;;;;8.80;48.89;102365.81;4411723;32;20076;-63
2021/04/24 08:35:50;;;;;;;3.50;3.40;;;;;;;8.75;48.43;102376.34;4407136;32;20684;-64
2021/04/24 08:38:16;;;;;;;5.32;5.12;;;;;;;8.60;49.49;102376.63;4405693;32;20084;-63
2021/04/24 08:40:41;;;;;;;3.50;3.40;;;;;;;9.24;50.67;102376.31;4410822;32;20120;-69
2021/04/24 08:43:06;;;;;;;3.50;3.40;;;;;;;9.40;49.95;102369.84;4412034;32;20134;-64
2021/04/24 08:45:32;;;;;;;3.50;3.40;;;;;;;9.44;48.51;102366.31;4406424;32;20076;-64
2021/04/24 08:47:57;;;;;;;4.53;4.22;;;;;;;9.16;49.17;102373.84;4434671;32;20081;-64
2021/04/24 08:50:24;;;;;;;3.28;3.17;;;;;;;9.32;52.02;102369.16;4407683;32;20138;-63
2021/04/24 08:52:50;;;;;;;3.62;3.53;;;;;;;9.05;49.54;102360.09;4414361;32;20073;-64
2021/04/24 08:55:22;;;;;;;3.60;3.50;;;;;;;8.97;48.76;102358.47;4409333;32;20079;-64
2021/04/24 08:57:47;;;;;;;4.05;3.65;;;;;;;9.23;48.90;102361.50;4412012;32;20087;-63
2021/04/24 09:00:13;;;;;;;3.40;3.30;;;;;;;9.34;48.32;102364.75;4406845;32;20069;-63
2021/04/24 09:02:40;;;;;;;3.85;3.70;;;;;;;9.14;48.76;102358.19;4410643;32;20203;-63
2021/04/24 09:05:07;;;;;;;4.60;4.30;;;;;;;8.52;49.04;102298.25;4409521;32;20068;-63
2021/04/24 09:07:33;;;;;;;3.80;3.60;;;;;;;9.17;48.45;102370.34;4412465;32;20712;-62
2021/04/24 09:09:58;;;;;;;3.50;3.40;;;;;;;9.39;49.80;102355.91;4411887;32;20060;-63
2021/04/24 09:12:37;;;;;;;4.03;3.83;;;;;;;9.52;48.07;102355.66;4407850;32;20468;-62
2021/04/24 09:15:11;;;;;;;3.65;3.55;;;;;;;9.49;48.28;102361.81;4399213;32;20681;-62
2021/04/24 09:18:06;;;;;;;3.58;3.47;;;;;;;9.16;46.13;102251.63;4409390;32;20154;-64
2021/04/24 09:20:33;;;;;;;3.97;3.80;;;;;;;9.70;49.13;102354.38;4406980;32;20645;-63
2021/04/24 09:23:01;;;;;;;4.00;3.80;;;;;;;9.75;50.28;102345.53;4396358;32;20741;-64
2021/04/24 09:25:34;;;;;;;3.60;3.50;;;;;;;10.16;47.25;102350.72;4411606;32;21055;-64
2021/04/24 09:27:59;;;;;;;;;;;;;;;10.54;46.46;102352.44;4409344;32;20091;-63
2021/04/24 09:30:30;;;;;;;3.50;3.40;;;;;;;10.34;45.72;102347.69;4411553;32;20491;-64
2021/04/24 09:33:05;;;;;;;14.68;4.12;;;;;;;10.12;46.64;102355.19;4422247;32;20166;-64
2021/04/24 09:35:40;;;;;;;4.05;3.85;;;;;;;9.97;47.18;102347.69;4411781;32;20064;-63
2021/04/24 09:38:06;;;;;;;3.50;3.40;;;;;;;10.25;45.58;102345.25;4408727;32;20126;-64
2021/04/24 09:40:31;;;;;;;3.65;3.55;;;;;;;10.62;46.81;102348.75;4407027;32;20088;-63
2021/04/24 09:43:07;;;;;;;4.40;4.20;;;;;;;10.32;46.64;102343.38;4432417;32;20085;-64
2021/04/24 09:45:40;;;;;;;3.67;3.58;;;;;;;10.10;46.29;102345.63;4419670;32;20065;-64
2021/04/24 09:48:22;;;;;;;3.60;3.50;;;;;;;9.92;48.84;102357.41;4408874;32;20920;-64
2021/04/24 09:50:47;;;;;;;4.12;3.83;;;;;;;9.97;45.91;102348.53;4424065;32;20095;-63
2021/04/24 09:53:13;;;;;;;3.70;3.60;;;;;;;10.13;46.08;102340.31;4420163;32;20119;-64
2021/04/24 09:55:39;;;;;;;3.50;3.40;;;;;;;10.68;44.37;102338.94;4415188;32;20153;-64
2021/04/24 09:58:04;;;;;;;3.70;3.60;;;;;;;10.24;46.32;102283.16;4411051;32;20872;-63
2021/04/24 10:00:30;;;;;;;3.60;3.50;;;;;;;10.70;47.66;102331.03;4412642;32;20068;-64
2021/04/24 10:02:56;;;;;;;4.00;3.80;;;;;;;10.85;45.91;102330.63;4413450;32;20213;-64
2021/04/24 10:05:22;;;;;;;3.67;3.58;;;;;;;10.75;48.38;102318.66;4414021;32;20621;-63
2021/04/24 10:07:56;;;;;;;4.10;3.90;;;;;;;10.90;44.13;102291.94;4399717;32;20072;-64
2021/04/24 10:10:38;;;;;;;4.00;3.80;;;;;;;11.23;43.67;102318.19;4414738;32;20178;-64
2021/04/24 10:13:05;;;;;;;4.10;3.90;;;;;;;10.84;45.98;102317.53;4410236;32;20717;-64
2021/04/24 10:15:36;;;;;;;4.03;3.83;;;;;;;10.91;47.13;102322.56;4411394;32;20074;-64
2021/04/24 10:18:02;;;;;;;4.30;4.10;;;;;;;10.76;45.21;102318.63;4419282;32;21017;-63
2021/04/24 10:20:27;;;;;;;6.60;3.90;;;;;;;10.92;46.03;102323.44;4410267;32;20330;-63
2021/04/24 10:22:53;;;;;;;4.00;3.80;;;;;;;10.80;45.33;102314.13;4413509;32;20066;-64
2021/04/24 10:25:19;;;;;;;4.40;4.20;;;;;;;11.01;45.63;102307.44;4424116;32;20089;-63
2021/04/24 10:27:44;;;;;;;4.25;4.00;;;;;;;11.33;44.61;102310.91;4412564;32;20099;-64
2021/04/24 10:30:10;;;;;;;4.00;3.80;;;;;;;11.24;44.08;102303.28;4422509;32;20119;-64
2021/04/24 10:32:35;;;;;;;4.00;3.80;;;;;;;11.16;45.73;102301.75;4411532;32;20072;-64
2021/04/24 10:35:01;;;;;;;4.03;3.83;;;;;;;10.20;43.61;102142.47;4410738;32;20103;-64
2021/04/24 10:37:26;;;;;;;3.58;3.47;;;;;;;11.54;42.76;102291.81;4411097;32;20530;-63
2021/04/24 10:39:51;;;;;;;3.97;3.83;;;;;;;11.48;43.57;102294.66;4434332;32;20076;-63
2021/04/24 10:42:21;;;;;;;3.80;3.70;;;;;;;11.62;41.25;102285.47;4405275;32;20091;-63
2021/04/24 10:44:57;;;;;;;4.20;4.00;;;;;;;11.67;42.83;102287.06;4411108;32;20093;-63
2021/04/24 10:47:37;;;;;;;4.40;4.20;;;;;;;11.70;42.13;102294.00;4426720;32;20862;-63
2021/04/24 10:50:03;;;;;;;4.12;3.92;;;;;;;11.57;41.52;102291.75;4415625;32;20900;-64
2021/04/24 10:52:29;;;;;;;3.60;3.50;;;;;;;11.46;43.15;102285.94;4417891;32;20077;-63
2021/04/24 10:55:12;;;;;;;4.35;4.15;;;;;;;11.92;41.13;102273.16;4400889;32;20088;-63
2021/04/24 10:57:38;;;;;;;3.80;3.70;;;;;;;12.03;41.85;102270.16;4432448;32;20194;-64
2021/04/24 11:00:10;;;;;;;4.30;4.10;;;;;;;11.98;40.41;102273.81;4423189;32;20672;-63
2021/04/24 11:02:54;;;;;;;4.03;3.83;;;;;;;11.53;42.84;102271.72;4413245;32;20582;-64
2021/04/24 11:05:29;;;;;;;3.95;3.80;;;;;;;11.34;43.74;102270.53;4406999;32;20194;-63
2021/04/24 11:08:20;;;;;;;4.18;3.97;;;;;;;11.46;43.74;102264.91;4434510;32;21315;-66
2021/04/24 11:11:10;;;;;;;3.92;3.75;;;;;;;11.71;45.01;102254.50;4433395;32;20114;-65
2021/04/24 11:13:46;;;;;;;4.30;4.10;;;;;;;12.22;41.76;102255.47;4413687;32;20993;-65
2021/04/24 11:16:13;;;;;;;4.12;3.92;;;;;;;12.07;40.12;102256.87;4411338;32;20206;-66
2021/04/24 11:18:40;;;;;;;4.10;3.90;;;;;;;11.74;41.97;102251.75;4408423;32;20073;-66
2021/04/24 11:21:05;;;;;;;4.00;3.80;;;;;;;11.83;41.84;102260.28;4422625;32;20088;-66
2021/04/24 11:23:35;;;;;;;3.80;3.70;;;;;;;12.12;40.76;102239.13;4425066;32;20550;-66
2021/04/24 11:26:01;;;;;;;4.12;3.92;;;;;;;12.22;40.97;102244.09;4424277;32;20073;-66
2021/04/24 11:28:26;;;;;;;4.50;4.30;;;;;;;12.28;40.77;102244.75;4415040;32;20143;-67